sensor_id;sensor_type;location;lat;lon;timestamp;P1;durP1;ratioP1;P2;durP2;ratioP2
3447;SDS011;1738;49.500;17.736;2022-08-21T00:00:08;20.97;;;12.03;;
3447;SDS011;1738;49.500;17.736;2022-08-21T00:02:32;13.47;;;10.20;;
3447;SDS011;1738;49.500;17.736;2022-08-21T00:04:58;17.80;;;11.40;;
3447;SDS011;1738;49.500;17.736;2022-08-21T00:07:24;19.43;;;12.23;;
3447;SDS011;1738;49.500;17.736;2022-08-21T00:09:50;16.37;;;12.60;;
3447;SDS011;1738;49.500;17.736;2022-08-21T00:12:16;20.20;;;11.63;;
3447;SDS011;1738;49.500;17.736;2022-08-21T00:14:41;19.90;;;12.70;;
3447;SDS011;1738;49.500;17.736;2022-08-21T00:17:07;17.17;;;13.07;;
3447;SDS011;1738;49.500;17.736;2022-08-21T00:19:33;15.87;;;11.13;;
3447;SDS011;1738;49.500;17.736;2022-08-21T00:21:59;17.10;;;12.83;;
3447;SDS011;1738;49.500;17.736;2022-08-21T00:24:25;21.20;;;12.93;;
3447;SDS011;1738;49.500;17.736;2022-08-21T00:26:51;21.47;;;13.20;;
3447;SDS011;1738;49.500;17.736;2022-08-21T00:29:17;22.13;;;13.67;;
3447;SDS011;1738;49.500;17.736;2022-08-21T00:31:43;24.03;;;13.33;;
3447;SDS011;1738;49.500;17.736;2022-08-21T00:34:10;21.77;;;14.63;;
3447;SDS011;1738;49.500;17.736;2022-08-21T00:36:35;17.20;;;14.10;;
3447;SDS011;1738;49.500;17.736;2022-08-21T00:39:01;20.10;;;13.63;;
3447;SDS011;1738;49.500;17.736;2022-08-21T00:41:27;27.93;;;16.10;;
3447;SDS011;1738;49.500;17.736;2022-08-21T00:43:52;21.77;;;14.13;;
3447;SDS011;1738;49.500;17.736;2022-08-21T00:46:18;22.50;;;15.53;;
3447;SDS011;1738;49.500;17.736;2022-08-21T00:48:44;22.70;;;13.47;;
3447;SDS011;1738;49.500;17.736;2022-08-21T00:51:11;19.23;;;13.33;;
3447;SDS011;1738;49.500;17.736;2022-08-21T00:53:37;26.27;;;15.80;;
3447;SDS011;1738;49.500;17.736;2022-08-21T00:56:01;23.30;;;15.70;;
3447;SDS011;1738;49.500;17.736;2022-08-21T00:58:27;22.63;;;14.33;;
3447;SDS011;1738;49.500;17.736;2022-08-21T01:00:53;25.00;;;15.10;;
3447;SDS011;1738;49.500;17.736;2022-08-21T01:03:21;22.07;;;15.40;;
3447;SDS011;1738;49.500;17.736;2022-08-21T01:05:45;19.57;;;13.90;;
3447;SDS011;1738;49.500;17.736;2022-08-21T01:08:11;19.13;;;14.23;;
3447;SDS011;1738;49.500;17.736;2022-08-21T01:10:37;20.33;;;14.10;;
3447;SDS011;1738;49.500;17.736;2022-08-21T01:13:03;23.77;;;13.93;;
3447;SDS011;1738;49.500;17.736;2022-08-21T01:15:30;19.90;;;12.53;;
3447;SDS011;1738;49.500;17.736;2022-08-21T01:17:54;17.43;;;12.73;;
3447;SDS011;1738;49.500;17.736;2022-08-21T01:20:20;24.83;;;12.67;;
3447;SDS011;1738;49.500;17.736;2022-08-21T01:22:46;19.37;;;11.97;;
3447;SDS011;1738;49.500;17.736;2022-08-21T01:25:13;17.87;;;12.90;;
3447;SDS011;1738;49.500;17.736;2022-08-21T01:27:38;15.07;;;10.13;;
3447;SDS011;1738;49.500;17.736;2022-08-21T01:30:08;16.40;;;11.07;;
3447;SDS011;1738;49.500;17.736;2022-08-21T01:32:33;14.53;;;9.40;;
3447;SDS011;1738;49.500;17.736;2022-08-21T01:34:59;11.30;;;8.20;;
3447;SDS011;1738;49.500;17.736;2022-08-21T01:37:24;12.60;;;9.73;;
3447;SDS011;1738;49.500;17.736;2022-08-21T01:39:50;12.13;;;8.33;;
3447;SDS011;1738;49.500;17.736;2022-08-21T01:42:16;10.17;;;7.90;;
3447;SDS011;1738;49.500;17.736;2022-08-21T01:44:42;16.53;;;7.70;;
3447;SDS011;1738;49.500;17.736;2022-08-21T01:47:09;9.63;;;7.20;;
3447;SDS011;1738;49.500;17.736;2022-08-21T01:49:34;13.30;;;6.60;;
3447;SDS011;1738;49.500;17.736;2022-08-21T01:51:59;8.60;;;6.03;;
3447;SDS011;1738;49.500;17.736;2022-08-21T01:54:25;8.53;;;6.50;;
3447;SDS011;1738;49.500;17.736;2022-08-21T01:56:52;9.80;;;6.37;;
3447;SDS011;1738;49.500;17.736;2022-08-21T01:59:17;11.40;;;6.63;;
3447;SDS011;1738;49.500;17.736;2022-08-21T02:01:43;8.20;;;5.87;;
3447;SDS011;1738;49.500;17.736;2022-08-21T02:04:09;9.37;;;5.70;;
3447;SDS011;1738;49.500;17.736;2022-08-21T02:06:35;6.67;;;5.40;;
3447;SDS011;1738;49.500;17.736;2022-08-21T02:09:01;10.17;;;7.13;;
3447;SDS011;1738;49.500;17.736;2022-08-21T02:11:26;8.53;;;5.40;;
3447;SDS011;1738;49.500;17.736;2022-08-21T02:13:52;6.70;;;5.10;;
3447;SDS011;1738;49.500;17.736;2022-08-21T02:16:18;6.20;;;5.10;;
3447;SDS011;1738;49.500;17.736;2022-08-21T02:18:44;10.40;;;6.93;;
3447;SDS011;1738;49.500;17.736;2022-08-21T02:21:09;6.50;;;4.80;;
3447;SDS011;1738;49.500;17.736;2022-08-21T02:23:35;5.70;;;4.07;;
3447;SDS011;1738;49.500;17.736;2022-08-21T02:26:02;6.37;;;4.53;;
3447;SDS011;1738;49.500;17.736;2022-08-21T02:28:27;5.82;;;4.40;;
3447;SDS011;1738;49.500;17.736;2022-08-21T02:30:54;8.23;;;5.23;;
3447;SDS011;1738;49.500;17.736;2022-08-21T02:33:19;8.73;;;5.40;;
3447;SDS011;1738;49.500;17.736;2022-08-21T02:35:45;8.10;;;5.10;;
3447;SDS011;1738;49.500;17.736;2022-08-21T02:38:12;6.97;;;5.20;;
3447;SDS011;1738;49.500;17.736;2022-08-21T02:40:37;7.73;;;5.30;;
3447;SDS011;1738;49.500;17.736;2022-08-21T02:43:03;6.43;;;4.77;;
3447;SDS011;1738;49.500;17.736;2022-08-21T02:45:28;7.40;;;5.17;;
3447;SDS011;1738;49.500;17.736;2022-08-21T02:47:56;10.80;;;5.03;;
3447;SDS011;1738;49.500;17.736;2022-08-21T02:50:23;9.10;;;5.23;;
3447;SDS011;1738;49.500;17.736;2022-08-21T02:52:47;11.07;;;4.53;;
3447;SDS011;1738;49.500;17.736;2022-08-21T02:55:13;7.60;;;3.60;;
3447;SDS011;1738;49.500;17.736;2022-08-21T02:57:39;8.97;;;3.43;;
3447;SDS011;1738;49.500;17.736;2022-08-21T03:00:05;6.73;;;3.00;;
3447;SDS011;1738;49.500;17.736;2022-08-21T03:02:31;5.90;;;2.70;;
3447;SDS011;1738;49.500;17.736;2022-08-21T03:04:57;8.43;;;4.40;;
3447;SDS011;1738;49.500;17.736;2022-08-21T03:07:22;15.03;;;3.13;;
3447;SDS011;1738;49.500;17.736;2022-08-21T03:09:48;5.17;;;2.50;;
3447;SDS011;1738;49.500;17.736;2022-08-21T03:12:14;6.53;;;3.00;;
3447;SDS011;1738;49.500;17.736;2022-08-21T03:14:40;4.83;;;2.67;;
3447;SDS011;1738;49.500;17.736;2022-08-21T03:17:06;6.57;;;3.28;;
3447;SDS011;1738;49.500;17.736;2022-08-21T03:19:32;5.30;;;3.40;;
3447;SDS011;1738;49.500;17.736;2022-08-21T03:21:58;7.10;;;2.83;;
3447;SDS011;1738;49.500;17.736;2022-08-21T03:24:24;7.57;;;3.40;;
3447;SDS011;1738;49.500;17.736;2022-08-21T03:26:50;5.90;;;3.20;;
3447;SDS011;1738;49.500;17.736;2022-08-21T03:29:15;4.07;;;2.80;;
3447;SDS011;1738;49.500;17.736;2022-08-21T03:31:41;7.17;;;2.70;;
3447;SDS011;1738;49.500;17.736;2022-08-21T03:34:07;7.60;;;2.67;;
3447;SDS011;1738;49.500;17.736;2022-08-21T03:36:33;7.90;;;3.13;;
3447;SDS011;1738;49.500;17.736;2022-08-21T03:38:59;10.33;;;3.67;;
3447;SDS011;1738;49.500;17.736;2022-08-21T03:41:25;7.43;;;3.50;;
3447;SDS011;1738;49.500;17.736;2022-08-21T03:43:50;5.23;;;2.50;;
3447;SDS011;1738;49.500;17.736;2022-08-21T03:46:16;7.50;;;2.50;;
3447;SDS011;1738;49.500;17.736;2022-08-21T03:48:42;5.97;;;3.30;;
3447;SDS011;1738;49.500;17.736;2022-08-21T03:51:08;6.63;;;3.80;;
3447;SDS011;1738;49.500;17.736;2022-08-21T03:53:34;6.33;;;3.23;;
3447;SDS011;1738;49.500;17.736;2022-08-21T03:56:00;5.37;;;3.40;;
3447;SDS011;1738;49.500;17.736;2022-08-21T03:58:26;3.53;;;2.40;;
3447;SDS011;1738;49.500;17.736;2022-08-21T04:00:53;9.80;;;2.77;;
3447;SDS011;1738;49.500;17.736;2022-08-21T04:03:17;7.30;;;3.57;;
3447;SDS011;1738;49.500;17.736;2022-08-21T04:05:43;5.90;;;2.97;;
3447;SDS011;1738;49.500;17.736;2022-08-21T04:08:09;5.60;;;3.40;;
3447;SDS011;1738;49.500;17.736;2022-08-21T04:10:35;8.07;;;3.87;;
3447;SDS011;1738;49.500;17.736;2022-08-21T04:13:01;7.60;;;3.80;;
3447;SDS011;1738;49.500;17.736;2022-08-21T04:15:26;7.30;;;3.47;;
3447;SDS011;1738;49.500;17.736;2022-08-21T04:17:52;6.53;;;3.80;;
3447;SDS011;1738;49.500;17.736;2022-08-21T04:20:18;5.23;;;3.00;;
3447;SDS011;1738;49.500;17.736;2022-08-21T04:22:44;5.13;;;2.73;;
3447;SDS011;1738;49.500;17.736;2022-08-21T04:25:10;9.40;;;3.53;;
3447;SDS011;1738;49.500;17.736;2022-08-21T04:27:36;6.10;;;3.87;;
3447;SDS011;1738;49.500;17.736;2022-08-21T04:30:02;6.53;;;3.93;;
3447;SDS011;1738;49.500;17.736;2022-08-21T04:32:27;7.77;;;3.57;;
3447;SDS011;1738;49.500;17.736;2022-08-21T04:34:59;10.33;;;3.80;;
3447;SDS011;1738;49.500;17.736;2022-08-21T04:37:24;6.30;;;3.73;;
3447;SDS011;1738;49.500;17.736;2022-08-21T04:39:50;9.53;;;3.40;;
3447;SDS011;1738;49.500;17.736;2022-08-21T04:42:15;5.87;;;2.83;;
3447;SDS011;1738;49.500;17.736;2022-08-21T04:44:41;8.20;;;3.73;;
3447;SDS011;1738;49.500;17.736;2022-08-21T04:47:07;5.37;;;2.80;;
3447;SDS011;1738;49.500;17.736;2022-08-21T04:49:33;7.10;;;3.03;;
3447;SDS011;1738;49.500;17.736;2022-08-21T04:51:59;5.93;;;3.30;;
3447;SDS011;1738;49.500;17.736;2022-08-21T04:54:25;4.43;;;3.23;;
3447;SDS011;1738;49.500;17.736;2022-08-21T04:56:51;5.23;;;3.47;;
3447;SDS011;1738;49.500;17.736;2022-08-21T04:59:19;6.43;;;3.80;;
3447;SDS011;1738;49.500;17.736;2022-08-21T05:01:43;6.07;;;2.83;;
3447;SDS011;1738;49.500;17.736;2022-08-21T05:04:10;7.60;;;3.50;;
3447;SDS011;1738;49.500;17.736;2022-08-21T05:06:35;10.13;;;3.97;;
3447;SDS011;1738;49.500;17.736;2022-08-21T05:09:00;8.73;;;3.20;;
3447;SDS011;1738;49.500;17.736;2022-08-21T05:11:26;8.90;;;3.43;;
3447;SDS011;1738;49.500;17.736;2022-08-21T05:13:52;14.60;;;3.43;;
3447;SDS011;1738;49.500;17.736;2022-08-21T05:16:18;10.30;;;4.10;;
3447;SDS011;1738;49.500;17.736;2022-08-21T05:18:44;5.37;;;4.17;;
3447;SDS011;1738;49.500;17.736;2022-08-21T05:21:10;10.50;;;4.03;;
3447;SDS011;1738;49.500;17.736;2022-08-21T05:23:36;7.50;;;3.80;;
3447;SDS011;1738;49.500;17.736;2022-08-21T05:26:02;8.20;;;3.80;;
3447;SDS011;1738;49.500;17.736;2022-08-21T05:28:27;4.87;;;3.30;;
3447;SDS011;1738;49.500;17.736;2022-08-21T05:30:53;8.40;;;4.20;;
3447;SDS011;1738;49.500;17.736;2022-08-21T05:33:19;9.03;;;3.90;;
3447;SDS011;1738;49.500;17.736;2022-08-21T05:35:45;6.80;;;3.80;;
3447;SDS011;1738;49.500;17.736;2022-08-21T05:38:11;5.30;;;3.67;;
3447;SDS011;1738;49.500;17.736;2022-08-21T05:40:36;7.63;;;3.77;;
3447;SDS011;1738;49.500;17.736;2022-08-21T05:43:02;9.27;;;4.43;;
3447;SDS011;1738;49.500;17.736;2022-08-21T05:45:29;8.40;;;4.10;;
3447;SDS011;1738;49.500;17.736;2022-08-21T05:47:54;14.17;;;5.40;;
3447;SDS011;1738;49.500;17.736;2022-08-21T05:50:20;11.47;;;5.13;;
3447;SDS011;1738;49.500;17.736;2022-08-21T05:52:46;13.60;;;4.27;;
3447;SDS011;1738;49.500;17.736;2022-08-21T05:55:11;8.80;;;4.70;;
3447;SDS011;1738;49.500;17.736;2022-08-21T05:57:37;9.87;;;4.47;;
3447;SDS011;1738;49.500;17.736;2022-08-21T06:00:03;6.90;;;3.80;;
3447;SDS011;1738;49.500;17.736;2022-08-21T06:02:29;6.63;;;3.93;;
3447;SDS011;1738;49.500;17.736;2022-08-21T06:04:55;11.23;;;4.10;;
3447;SDS011;1738;49.500;17.736;2022-08-21T06:07:21;10.23;;;5.70;;
3447;SDS011;1738;49.500;17.736;2022-08-21T06:09:47;9.80;;;4.63;;
3447;SDS011;1738;49.500;17.736;2022-08-21T06:12:13;8.90;;;5.20;;
3447;SDS011;1738;49.500;17.736;2022-08-21T06:14:39;8.70;;;5.27;;
3447;SDS011;1738;49.500;17.736;2022-08-21T06:17:05;6.10;;;3.33;;
3447;SDS011;1738;49.500;17.736;2022-08-21T06:19:30;9.90;;;4.07;;
3447;SDS011;1738;49.500;17.736;2022-08-21T06:21:56;9.20;;;4.27;;
3447;SDS011;1738;49.500;17.736;2022-08-21T06:24:23;13.17;;;4.43;;
3447;SDS011;1738;49.500;17.736;2022-08-21T06:26:49;11.00;;;4.63;;
3447;SDS011;1738;49.500;17.736;2022-08-21T06:29:14;6.30;;;3.97;;
3447;SDS011;1738;49.500;17.736;2022-08-21T06:31:41;14.17;;;4.10;;
3447;SDS011;1738;49.500;17.736;2022-08-21T06:34:07;5.57;;;3.27;;
3447;SDS011;1738;49.500;17.736;2022-08-21T06:36:33;5.87;;;3.57;;
3447;SDS011;1738;49.500;17.736;2022-08-21T06:38:59;10.83;;;5.20;;
3447;SDS011;1738;49.500;17.736;2022-08-21T06:41:24;9.00;;;4.00;;
3447;SDS011;1738;49.500;17.736;2022-08-21T06:43:50;5.73;;;3.63;;
3447;SDS011;1738;49.500;17.736;2022-08-21T06:46:16;7.90;;;3.77;;
3447;SDS011;1738;49.500;17.736;2022-08-21T06:48:42;6.70;;;3.50;;
3447;SDS011;1738;49.500;17.736;2022-08-21T06:51:08;7.13;;;3.53;;
3447;SDS011;1738;49.500;17.736;2022-08-21T06:53:34;9.90;;;3.10;;
3447;SDS011;1738;49.500;17.736;2022-08-21T06:55:59;5.57;;;3.27;;
3447;SDS011;1738;49.500;17.736;2022-08-21T06:58:25;7.93;;;3.70;;
3447;SDS011;1738;49.500;17.736;2022-08-21T07:00:51;7.17;;;3.57;;
3447;SDS011;1738;49.500;17.736;2022-08-21T07:03:19;6.20;;;3.70;;
3447;SDS011;1738;49.500;17.736;2022-08-21T07:05:44;8.07;;;4.50;;
3447;SDS011;1738;49.500;17.736;2022-08-21T07:08:09;12.53;;;3.47;;
3447;SDS011;1738;49.500;17.736;2022-08-21T07:10:35;4.47;;;2.87;;
3447;SDS011;1738;49.500;17.736;2022-08-21T07:13:01;6.80;;;3.37;;
3447;SDS011;1738;49.500;17.736;2022-08-21T07:15:28;6.03;;;2.87;;
3447;SDS011;1738;49.500;17.736;2022-08-21T07:17:53;6.77;;;3.50;;
3447;SDS011;1738;49.500;17.736;2022-08-21T07:20:19;6.93;;;3.80;;
3447;SDS011;1738;49.500;17.736;2022-08-21T07:22:44;6.03;;;3.63;;
3447;SDS011;1738;49.500;17.736;2022-08-21T07:25:10;8.60;;;4.00;;
3447;SDS011;1738;49.500;17.736;2022-08-21T07:27:36;10.10;;;3.20;;
3447;SDS011;1738;49.500;17.736;2022-08-21T07:30:03;7.73;;;3.53;;
3447;SDS011;1738;49.500;17.736;2022-08-21T07:32:28;11.67;;;5.77;;
3447;SDS011;1738;49.500;17.736;2022-08-21T07:34:54;7.07;;;3.57;;
3447;SDS011;1738;49.500;17.736;2022-08-21T07:37:20;4.33;;;2.90;;
3447;SDS011;1738;49.500;17.736;2022-08-21T07:39:46;5.73;;;3.13;;
3447;SDS011;1738;49.500;17.736;2022-08-21T07:42:11;7.00;;;3.10;;
3447;SDS011;1738;49.500;17.736;2022-08-21T07:44:37;6.90;;;3.40;;
3447;SDS011;1738;49.500;17.736;2022-08-21T07:47:03;4.27;;;2.80;;
3447;SDS011;1738;49.500;17.736;2022-08-21T07:49:29;7.97;;;3.17;;
3447;SDS011;1738;49.500;17.736;2022-08-21T07:51:55;6.30;;;2.40;;
3447;SDS011;1738;49.500;17.736;2022-08-21T07:54:21;5.30;;;2.70;;
3447;SDS011;1738;49.500;17.736;2022-08-21T07:56:47;4.20;;;2.87;;
3447;SDS011;1738;49.500;17.736;2022-08-21T07:59:12;6.30;;;3.10;;
3447;SDS011;1738;49.500;17.736;2022-08-21T08:01:38;7.60;;;3.20;;
3447;SDS011;1738;49.500;17.736;2022-08-21T08:04:04;8.53;;;4.77;;
3447;SDS011;1738;49.500;17.736;2022-08-21T08:06:30;6.80;;;3.10;;
3447;SDS011;1738;49.500;17.736;2022-08-21T08:08:56;4.90;;;3.40;;
3447;SDS011;1738;49.500;17.736;2022-08-21T08:11:22;4.83;;;2.70;;
3447;SDS011;1738;49.500;17.736;2022-08-21T08:13:49;6.33;;;3.23;;
3447;SDS011;1738;49.500;17.736;2022-08-21T08:16:14;8.93;;;3.17;;
3447;SDS011;1738;49.500;17.736;2022-08-21T08:18:39;5.40;;;2.77;;
3447;SDS011;1738;49.500;17.736;2022-08-21T08:21:06;5.60;;;2.73;;
3447;SDS011;1738;49.500;17.736;2022-08-21T08:23:32;3.70;;;2.63;;
3447;SDS011;1738;49.500;17.736;2022-08-21T08:25:58;5.67;;;3.27;;
3447;SDS011;1738;49.500;17.736;2022-08-21T08:28:23;4.50;;;2.83;;
3447;SDS011;1738;49.500;17.736;2022-08-21T08:30:49;4.30;;;3.07;;
3447;SDS011;1738;49.500;17.736;2022-08-21T08:33:15;3.67;;;2.30;;
3447;SDS011;1738;49.500;17.736;2022-08-21T08:35:41;3.83;;;1.90;;
3447;SDS011;1738;49.500;17.736;2022-08-21T08:38:07;3.37;;;2.20;;
3447;SDS011;1738;49.500;17.736;2022-08-21T08:40:36;3.03;;;1.70;;
3447;SDS011;1738;49.500;17.736;2022-08-21T08:42:59;6.50;;;2.60;;
3447;SDS011;1738;49.500;17.736;2022-08-21T08:45:24;3.13;;;2.27;;
3447;SDS011;1738;49.500;17.736;2022-08-21T08:47:55;3.43;;;1.70;;
3447;SDS011;1738;49.500;17.736;2022-08-21T08:50:22;3.70;;;2.33;;
3447;SDS011;1738;49.500;17.736;2022-08-21T08:52:49;4.70;;;2.23;;
3447;SDS011;1738;49.500;17.736;2022-08-21T08:55:16;4.73;;;1.63;;
3447;SDS011;1738;49.500;17.736;2022-08-21T08:57:42;2.73;;;1.50;;
3447;SDS011;1738;49.500;17.736;2022-08-21T09:00:08;2.70;;;1.50;;
3447;SDS011;1738;49.500;17.736;2022-08-21T09:02:32;2.13;;;1.17;;
3447;SDS011;1738;49.500;17.736;2022-08-21T09:04:58;5.33;;;3.20;;
3447;SDS011;1738;49.500;17.736;2022-08-21T09:07:29;3.07;;;1.30;;
3447;SDS011;1738;49.500;17.736;2022-08-21T09:12:33;2.73;;;1.20;;
3447;SDS011;1738;49.500;17.736;2022-08-21T09:15:13;3.90;;;1.50;;
3447;SDS011;1738;49.500;17.736;2022-08-21T09:17:43;2.30;;;1.20;;
3447;SDS011;1738;49.500;17.736;2022-08-21T09:20:11;3.20;;;1.67;;
3447;SDS011;1738;49.500;17.736;2022-08-21T09:22:39;1.90;;;1.20;;
3447;SDS011;1738;49.500;17.736;2022-08-21T09:25:03;2.50;;;1.30;;
3447;SDS011;1738;49.500;17.736;2022-08-21T09:27:26;2.70;;;1.20;;
3447;SDS011;1738;49.500;17.736;2022-08-21T09:29:52;2.50;;;1.43;;
3447;SDS011;1738;49.500;17.736;2022-08-21T09:32:20;6.10;;;1.30;;
3447;SDS011;1738;49.500;17.736;2022-08-21T09:37:17;3.20;;;1.60;;
3447;SDS011;1738;49.500;17.736;2022-08-21T09:39:42;2.20;;;1.40;;
3447;SDS011;1738;49.500;17.736;2022-08-21T09:42:09;2.30;;;1.20;;
3447;SDS011;1738;49.500;17.736;2022-08-21T09:44:35;2.33;;;1.30;;
3447;SDS011;1738;49.500;17.736;2022-08-21T09:46:59;4.67;;;1.60;;
3447;SDS011;1738;49.500;17.736;2022-08-21T09:49:27;2.17;;;1.20;;
3447;SDS011;1738;49.500;17.736;2022-08-21T09:51:52;4.33;;;1.20;;
3447;SDS011;1738;49.500;17.736;2022-08-21T09:54:18;2.27;;;1.50;;
3447;SDS011;1738;49.500;17.736;2022-08-21T09:59:28;3.40;;;1.33;;
3447;SDS011;1738;49.500;17.736;2022-08-21T10:01:53;3.10;;;1.00;;
3447;SDS011;1738;49.500;17.736;2022-08-21T10:04:20;2.57;;;1.23;;
3447;SDS011;1738;49.500;17.736;2022-08-21T10:06:44;2.00;;;1.10;;
3447;SDS011;1738;49.500;17.736;2022-08-21T10:09:11;4.13;;;1.47;;
3447;SDS011;1738;49.500;17.736;2022-08-21T10:11:36;2.63;;;1.30;;
3447;SDS011;1738;49.500;17.736;2022-08-21T10:14:07;2.30;;;1.40;;
3447;SDS011;1738;49.500;17.736;2022-08-21T10:16:35;1.80;;;1.00;;
3447;SDS011;1738;49.500;17.736;2022-08-21T10:19:06;2.23;;;1.00;;
3447;SDS011;1738;49.500;17.736;2022-08-21T10:21:33;1.90;;;1.00;;
3447;SDS011;1738;49.500;17.736;2022-08-21T10:24:00;4.57;;;1.10;;
3447;SDS011;1738;49.500;17.736;2022-08-21T10:26:26;4.33;;;1.40;;
3447;SDS011;1738;49.500;17.736;2022-08-21T10:28:54;2.40;;;1.50;;
3447;SDS011;1738;49.500;17.736;2022-08-21T10:31:21;2.90;;;1.43;;
3447;SDS011;1738;49.500;17.736;2022-08-21T10:33:53;2.33;;;1.23;;
3447;SDS011;1738;49.500;17.736;2022-08-21T10:36:21;2.30;;;1.30;;
3447;SDS011;1738;49.500;17.736;2022-08-21T10:38:59;2.10;;;1.10;;
3447;SDS011;1738;49.500;17.736;2022-08-21T10:41:28;2.40;;;1.00;;
3447;SDS011;1738;49.500;17.736;2022-08-21T10:44:00;4.47;;;1.13;;
3447;SDS011;1738;49.500;17.736;2022-08-21T10:46:36;1.80;;;1.00;;
3447;SDS011;1738;49.500;17.736;2022-08-21T10:51:39;3.20;;;0.80;;
3447;SDS011;1738;49.500;17.736;2022-08-21T10:54:10;3.30;;;0.80;;
3447;SDS011;1738;49.500;17.736;2022-08-21T10:56:32;1.70;;;0.90;;
3447;SDS011;1738;49.500;17.736;2022-08-21T10:59:09;2.87;;;1.50;;
3447;SDS011;1738;49.500;17.736;2022-08-21T11:04:12;2.67;;;1.67;;
3447;SDS011;1738;49.500;17.736;2022-08-21T11:06:37;2.27;;;1.00;;
3447;SDS011;1738;49.500;17.736;2022-08-21T11:09:10;2.40;;;1.13;;
3447;SDS011;1738;49.500;17.736;2022-08-21T11:11:35;1.83;;;1.00;;
3447;SDS011;1738;49.500;17.736;2022-08-21T11:14:01;2.00;;;1.10;;
3447;SDS011;1738;49.500;17.736;2022-08-21T11:16:42;1.80;;;1.00;;
3447;SDS011;1738;49.500;17.736;2022-08-21T11:19:12;3.80;;;1.70;;
3447;SDS011;1738;49.500;17.736;2022-08-21T11:21:44;3.50;;;2.00;;
3447;SDS011;1738;49.500;17.736;2022-08-21T11:26:44;2.07;;;1.13;;
3447;SDS011;1738;49.500;17.736;2022-08-21T11:29:12;1.80;;;0.93;;
3447;SDS011;1738;49.500;17.736;2022-08-21T11:31:46;2.23;;;1.10;;
3447;SDS011;1738;49.500;17.736;2022-08-21T11:34:13;2.83;;;0.90;;
3447;SDS011;1738;49.500;17.736;2022-08-21T11:36:42;2.00;;;1.10;;
3447;SDS011;1738;49.500;17.736;2022-08-21T11:39:11;2.30;;;1.10;;
3447;SDS011;1738;49.500;17.736;2022-08-21T11:41:35;4.93;;;1.40;;
3447;SDS011;1738;49.500;17.736;2022-08-21T11:44:07;1.90;;;1.10;;
3447;SDS011;1738;49.500;17.736;2022-08-21T11:46:33;2.10;;;1.30;;
3447;SDS011;1738;49.500;17.736;2022-08-21T11:49:02;2.30;;;1.00;;
3447;SDS011;1738;49.500;17.736;2022-08-21T11:51:27;2.40;;;1.10;;
3447;SDS011;1738;49.500;17.736;2022-08-21T11:53:52;2.20;;;1.20;;
3447;SDS011;1738;49.500;17.736;2022-08-21T11:56:19;2.10;;;1.20;;
3447;SDS011;1738;49.500;17.736;2022-08-21T11:58:45;2.90;;;1.10;;
3447;SDS011;1738;49.500;17.736;2022-08-21T12:01:11;5.57;;;1.70;;
3447;SDS011;1738;49.500;17.736;2022-08-21T12:03:37;2.10;;;1.20;;
3447;SDS011;1738;49.500;17.736;2022-08-21T12:06:04;4.33;;;1.43;;
3447;SDS011;1738;49.500;17.736;2022-08-21T12:08:29;2.03;;;1.20;;
3447;SDS011;1738;49.500;17.736;2022-08-21T12:11:00;2.87;;;1.43;;
3447;SDS011;1738;49.500;17.736;2022-08-21T12:13:25;2.47;;;1.57;;
3447;SDS011;1738;49.500;17.736;2022-08-21T12:15:50;2.40;;;1.47;;
3447;SDS011;1738;49.500;17.736;2022-08-21T12:18:21;4.20;;;1.40;;
3447;SDS011;1738;49.500;17.736;2022-08-21T12:21:02;2.77;;;1.70;;
3447;SDS011;1738;49.500;17.736;2022-08-21T12:23:28;2.13;;;1.30;;
3447;SDS011;1738;49.500;17.736;2022-08-21T12:26:00;2.37;;;1.40;;
3447;SDS011;1738;49.500;17.736;2022-08-21T12:28:24;2.70;;;1.90;;
3447;SDS011;1738;49.500;17.736;2022-08-21T12:30:50;2.47;;;1.40;;
3447;SDS011;1738;49.500;17.736;2022-08-21T12:33:19;3.10;;;1.50;;
3447;SDS011;1738;49.500;17.736;2022-08-21T12:35:43;4.17;;;1.87;;
3447;SDS011;1738;49.500;17.736;2022-08-21T12:38:13;4.50;;;1.90;;
3447;SDS011;1738;49.500;17.736;2022-08-21T12:40:40;2.93;;;1.70;;
3447;SDS011;1738;49.500;17.736;2022-08-21T12:43:04;4.70;;;1.93;;
3447;SDS011;1738;49.500;17.736;2022-08-21T12:45:34;2.83;;;1.50;;
3447;SDS011;1738;49.500;17.736;2022-08-21T12:48:04;4.37;;;1.40;;
3447;SDS011;1738;49.500;17.736;2022-08-21T12:50:35;7.80;;;1.70;;
3447;SDS011;1738;49.500;17.736;2022-08-21T12:52:59;3.40;;;1.70;;
3447;SDS011;1738;49.500;17.736;2022-08-21T12:55:26;2.00;;;1.27;;
3447;SDS011;1738;49.500;17.736;2022-08-21T12:57:50;4.17;;;1.83;;
3447;SDS011;1738;49.500;17.736;2022-08-21T13:00:19;3.60;;;1.57;;
3447;SDS011;1738;49.500;17.736;2022-08-21T13:02:46;2.80;;;1.60;;
3447;SDS011;1738;49.500;17.736;2022-08-21T13:05:11;3.13;;;1.80;;
3447;SDS011;1738;49.500;17.736;2022-08-21T13:07:34;2.60;;;1.60;;
3447;SDS011;1738;49.500;17.736;2022-08-21T13:10:01;4.20;;;1.83;;
3447;SDS011;1738;49.500;17.736;2022-08-21T13:12:26;3.37;;;1.70;;
3447;SDS011;1738;49.500;17.736;2022-08-21T13:14:51;2.40;;;1.67;;
3447;SDS011;1738;49.500;17.736;2022-08-21T13:17:19;2.70;;;1.80;;
3447;SDS011;1738;49.500;17.736;2022-08-21T13:22:15;2.77;;;1.70;;
3447;SDS011;1738;49.500;17.736;2022-08-21T13:24:41;2.23;;;1.50;;
3447;SDS011;1738;49.500;17.736;2022-08-21T13:29:39;2.40;;;1.50;;
3447;SDS011;1738;49.500;17.736;2022-08-21T13:32:05;3.03;;;1.70;;
3447;SDS011;1738;49.500;17.736;2022-08-21T13:34:34;2.90;;;1.90;;
3447;SDS011;1738;49.500;17.736;2022-08-21T13:36:59;3.10;;;1.93;;
3447;SDS011;1738;49.500;17.736;2022-08-21T13:39:24;2.30;;;1.40;;
3447;SDS011;1738;49.500;17.736;2022-08-21T13:41:52;2.93;;;1.70;;
3447;SDS011;1738;49.500;17.736;2022-08-21T13:44:21;2.43;;;1.70;;
3447;SDS011;1738;49.500;17.736;2022-08-21T13:46:45;2.87;;;1.90;;
3447;SDS011;1738;49.500;17.736;2022-08-21T13:49:12;3.40;;;2.00;;
3447;SDS011;1738;49.500;17.736;2022-08-21T13:51:37;3.00;;;1.93;;
3447;SDS011;1738;49.500;17.736;2022-08-21T13:54:13;2.73;;;2.00;;
3447;SDS011;1738;49.500;17.736;2022-08-21T13:56:29;3.23;;;1.80;;
3447;SDS011;1738;49.500;17.736;2022-08-21T13:58:55;5.10;;;3.40;;
3447;SDS011;1738;49.500;17.736;2022-08-21T14:01:23;4.53;;;2.90;;
3447;SDS011;1738;49.500;17.736;2022-08-21T14:03:47;3.60;;;2.80;;
3447;SDS011;1738;49.500;17.736;2022-08-21T14:06:21;3.70;;;2.40;;
3447;SDS011;1738;49.500;17.736;2022-08-21T14:08:49;4.70;;;2.70;;
3447;SDS011;1738;49.500;17.736;2022-08-21T14:11:13;5.57;;;2.67;;
3447;SDS011;1738;49.500;17.736;2022-08-21T14:13:41;4.30;;;2.20;;
3447;SDS011;1738;49.500;17.736;2022-08-21T14:16:11;2.90;;;2.07;;
3447;SDS011;1738;49.500;17.736;2022-08-21T14:18:42;3.80;;;2.40;;
3447;SDS011;1738;49.500;17.736;2022-08-21T14:21:05;11.90;;;3.10;;
3447;SDS011;1738;49.500;17.736;2022-08-21T14:23:30;4.20;;;2.87;;
3447;SDS011;1738;49.500;17.736;2022-08-21T14:25:58;6.37;;;3.03;;
3447;SDS011;1738;49.500;17.736;2022-08-21T14:28:26;4.30;;;3.10;;
3447;SDS011;1738;49.500;17.736;2022-08-21T14:30:51;4.83;;;3.53;;
3447;SDS011;1738;49.500;17.736;2022-08-21T14:33:23;5.83;;;4.93;;
3447;SDS011;1738;49.500;17.736;2022-08-21T14:35:47;6.50;;;4.83;;
3447;SDS011;1738;49.500;17.736;2022-08-21T14:38:14;5.37;;;3.60;;
3447;SDS011;1738;49.500;17.736;2022-08-21T14:40:39;7.47;;;5.60;;
3447;SDS011;1738;49.500;17.736;2022-08-21T14:43:04;4.90;;;3.27;;
3447;SDS011;1738;49.500;17.736;2022-08-21T14:45:30;7.40;;;4.63;;
3447;SDS011;1738;49.500;17.736;2022-08-21T14:47:57;4.60;;;3.10;;
3447;SDS011;1738;49.500;17.736;2022-08-21T14:50:22;3.70;;;2.63;;
3447;SDS011;1738;49.500;17.736;2022-08-21T14:52:48;3.63;;;2.80;;
3447;SDS011;1738;49.500;17.736;2022-08-21T14:55:14;5.00;;;3.40;;
3447;SDS011;1738;49.500;17.736;2022-08-21T14:57:40;4.00;;;3.10;;
3447;SDS011;1738;49.500;17.736;2022-08-21T15:00:06;5.30;;;4.13;;
3447;SDS011;1738;49.500;17.736;2022-08-21T15:02:32;4.00;;;3.10;;
3447;SDS011;1738;49.500;17.736;2022-08-21T15:04:57;3.97;;;3.33;;
3447;SDS011;1738;49.500;17.736;2022-08-21T15:07:23;3.90;;;2.40;;
3447;SDS011;1738;49.500;17.736;2022-08-21T15:09:49;3.87;;;3.00;;
3447;SDS011;1738;49.500;17.736;2022-08-21T15:12:15;4.33;;;3.20;;